createdAt,value
2023-02-16T00:01:52.179Z,100.00
2023-02-16T00:04:22.697Z,100.00
2023-02-16T00:06:53.141Z,100.00
2023-02-16T00:09:22.985Z,100.00
2023-02-16T00:15:00.132Z,100.00
2023-02-16T00:17:28.412Z,100.00
2023-02-16T00:19:56.538Z,100.00
2023-02-16T00:22:27.618Z,100.00
2023-02-16T00:24:55.790Z,100.00
2023-02-16T00:27:27.961Z,100.00
2023-02-16T00:29:56.176Z,100.00
2023-02-16T00:32:24.658Z,100.00
2023-02-16T00:34:53.026Z,100.00
2023-02-16T00:37:23.240Z,100.00
2023-02-16T00:39:51.723Z,100.00
2023-02-16T00:42:24.225Z,100.00
2023-02-16T00:44:56.656Z,100.00
2023-02-16T00:47:31.441Z,100.00
2023-02-16T00:49:59.665Z,100.00
2023-02-16T00:52:34.485Z,100.00
2023-02-16T00:55:04.641Z,100.00
2023-02-16T00:57:36.620Z,100.00
2023-02-16T01:00:13.724Z,100.00
2023-02-16T01:02:42.736Z,100.00
2023-02-16T01:05:10.759Z,100.00
2023-02-16T01:07:57.087Z,100.00
2023-02-16T01:10:49.269Z,100.00
2023-02-16T01:13:18.727Z,100.00
2023-02-16T01:15:50.919Z,100.00
2023-02-16T01:18:20.619Z,100.00
2023-02-16T01:20:49.587Z,100.00
2023-02-16T01:23:18.079Z,100.00
2023-02-16T01:25:46.634Z,100.00
2023-02-16T01:28:21.817Z,100.00
2023-02-16T01:30:53.262Z,100.00
2023-02-16T01:33:22.666Z,100.00
2023-02-16T01:35:52.026Z,100.00
2023-02-16T01:38:23.836Z,100.00
2023-02-16T01:41:01.881Z,100.00
2023-02-16T01:43:38.117Z,100.00
2023-02-16T01:46:15.240Z,100.00
2023-02-16T01:48:44.656Z,100.00
2023-02-16T01:51:17.769Z,100.00
2023-02-16T01:53:52.115Z,100.00
2023-02-16T01:56:32.090Z,100.00
2023-02-16T01:59:05.648Z,100.00
2023-02-16T02:01:45.207Z,100.00
2023-02-16T02:04:47.876Z,100.00
2023-02-16T02:07:23.563Z,100.00
2023-02-16T02:10:01.607Z,100.00
2023-02-16T02:12:36.092Z,100.00
2023-02-16T02:15:09.225Z,100.00
2023-02-16T02:17:38.931Z,100.00
2023-02-16T02:20:17.304Z,100.00
2023-02-16T02:23:34.259Z,100.00
2023-02-16T02:26:48.289Z,100.00
2023-02-16T02:29:55.044Z,100.00
2023-02-16T02:32:34.490Z,100.00
2023-02-16T02:35:19.889Z,100.00
2023-02-16T02:37:57.339Z,100.00
2023-02-16T02:40:38.700Z,100.00
2023-02-16T02:43:15.351Z,100.00
2023-02-16T02:45:50.386Z,100.00
2023-02-16T02:48:18.697Z,100.00
2023-02-16T02:51:09.449Z,100.00
2023-02-16T02:53:42.490Z,100.00
2023-02-16T02:56:31.161Z,100.00
2023-02-16T02:59:23.789Z,100.00
2023-02-16T03:01:57.628Z,100.00
2023-02-16T03:04:29.397Z,100.00
2023-02-16T03:06:59.925Z,100.00
2023-02-16T03:09:28.546Z,100.00
2023-02-16T03:12:17.194Z,100.00
2023-02-16T03:14:48.982Z,100.00
2023-02-16T03:17:41.759Z,100.00
2023-02-16T03:20:32.562Z,100.00
2023-02-16T03:23:23.804Z,100.00
2023-02-16T03:26:11.329Z,100.00
2023-02-16T03:29:02.141Z,100.00
2023-02-16T03:31:35.748Z,100.00
2023-02-16T03:34:06.529Z,100.00
2023-02-16T03:36:38.284Z,100.00
2023-02-16T03:39:08.251Z,100.00
2023-02-16T03:41:41.184Z,100.00
2023-02-16T03:44:09.491Z,100.00
2023-02-16T03:46:37.645Z,100.00
2023-02-16T03:49:09.924Z,100.00
2023-02-16T03:51:38.707Z,100.00
2023-02-16T03:56:26.979Z,100.00
2023-02-16T03:58:57.612Z,100.00
2023-02-16T04:01:25.994Z,100.00
2023-02-16T04:03:54.675Z,100.00
2023-02-16T04:06:22.950Z,100.00
2023-02-16T04:08:52.040Z,100.00
2023-02-16T04:11:37.585Z,100.00
2023-02-16T04:14:07.853Z,100.00
2023-02-16T04:16:36.066Z,100.00
2023-02-16T04:19:04.397Z,100.00
2023-02-16T04:21:32.617Z,100.00
2023-02-16T04:24:01.297Z,100.00
2023-02-16T04:26:29.403Z,100.00
2023-02-16T04:28:57.703Z,100.00
2023-02-16T04:31:27.378Z,100.00
2023-02-16T04:33:55.765Z,100.00
2023-02-16T04:36:24.073Z,100.00
2023-02-16T04:38:52.241Z,100.00
2023-02-16T04:41:20.649Z,100.00
2023-02-16T04:43:48.749Z,100.00
2023-02-16T04:46:17.005Z,100.00
2023-02-16T04:48:46.601Z,100.00
2023-02-16T04:51:15.177Z,100.00
2023-02-16T04:53:43.406Z,100.00
2023-02-16T04:56:12.161Z,100.00
2023-02-16T04:58:40.566Z,100.00
2023-02-16T05:01:08.898Z,100.00
2023-02-16T05:03:37.208Z,100.00
2023-02-16T05:06:07.123Z,100.00
2023-02-16T05:08:37.631Z,100.00
2023-02-16T05:11:23.323Z,100.00
2023-02-16T05:14:23.911Z,100.00
2023-02-16T05:16:52.489Z,100.00
2023-02-16T05:19:20.870Z,100.00
2023-02-16T05:21:52.699Z,100.00
2023-02-16T05:24:23.180Z,100.00
2023-02-16T05:26:54.128Z,100.00
2023-02-16T05:29:24.832Z,100.00
2023-02-16T05:31:53.518Z,100.00
2023-02-16T05:34:22.039Z,100.00
2023-02-16T05:36:55.368Z,100.00
2023-02-16T05:39:24.012Z,100.00
2023-02-16T05:41:52.331Z,100.00
2023-02-16T05:44:20.605Z,100.00
2023-02-16T05:46:49.088Z,100.00
2023-02-16T05:49:18.270Z,100.00
2023-02-16T05:51:46.899Z,100.00
2023-02-16T05:54:18.154Z,100.00
2023-02-16T05:56:47.080Z,100.00
2023-02-16T05:59:17.904Z,100.00
2023-02-16T06:01:51.013Z,100.00
2023-02-16T06:04:20.675Z,100.00
2023-02-16T06:06:48.803Z,100.00
2023-02-16T06:09:18.712Z,100.00
2023-02-16T06:11:47.257Z,100.00
2023-02-16T06:14:19.478Z,100.00
2023-02-16T06:16:51.539Z,100.00
2023-02-16T06:19:21.009Z,100.00
2023-02-16T06:21:49.654Z,100.00
2023-02-16T06:24:21.891Z,100.00
2023-02-16T06:26:50.120Z,100.00
2023-02-16T06:29:18.218Z,100.00
2023-02-16T06:31:46.731Z,100.00
2023-02-16T06:34:14.885Z,100.00
2023-02-16T06:36:43.073Z,100.00
2023-02-16T06:39:11.903Z,100.00
2023-02-16T06:41:41.277Z,100.00
2023-02-16T06:44:12.406Z,100.00
2023-02-16T06:46:41.150Z,100.00
2023-02-16T06:49:12.425Z,100.00
2023-02-16T06:51:40.600Z,100.00
2023-02-16T06:54:08.885Z,100.00
2023-02-16T06:56:38.059Z,100.00
2023-02-16T06:59:13.686Z,100.00
2023-02-16T07:01:45.503Z,100.00
2023-02-16T07:04:16.850Z,100.00
2023-02-16T07:06:46.157Z,100.00
2023-02-16T07:09:14.229Z,100.00
2023-02-16T07:11:42.488Z,100.00
2023-02-16T07:14:10.726Z,100.00
2023-02-16T07:16:40.699Z,100.00
2023-02-16T07:19:08.819Z,100.00
2023-02-16T07:21:37.860Z,100.00
2023-02-16T07:24:07.096Z,100.00
2023-02-16T07:26:35.571Z,100.00
2023-02-16T07:29:04.213Z,100.00
2023-02-16T07:31:32.705Z,100.00
2023-02-16T07:34:02.348Z,100.00
2023-02-16T07:36:30.640Z,100.00
2023-02-16T07:38:58.729Z,100.00
2023-02-16T07:41:27.043Z,100.00
2023-02-16T07:43:55.132Z,100.00
2023-02-16T07:46:23.798Z,100.00
2023-02-16T07:48:52.016Z,100.00
2023-02-16T07:51:26.045Z,100.00
2023-02-16T07:53:54.344Z,100.00
2023-02-16T07:56:24.897Z,100.00
2023-02-16T07:58:53.685Z,100.00
2023-02-16T08:01:23.192Z,100.00
2023-02-16T08:03:54.449Z,100.00
2023-02-16T08:06:24.820Z,100.00
2023-02-16T08:08:53.026Z,100.00
2023-02-16T08:11:23.063Z,100.00
2023-02-16T08:13:54.139Z,100.00
2023-02-16T08:16:24.332Z,100.00
2023-02-16T08:18:53.632Z,100.00
2023-02-16T08:21:25.375Z,100.00
2023-02-16T08:23:56.406Z,100.00
2023-02-16T08:26:29.572Z,100.00
2023-02-16T08:28:59.582Z,100.00
2023-02-16T08:31:31.105Z,100.00
2023-02-16T08:34:01.968Z,100.00
2023-02-16T08:36:34.058Z,100.00
2023-02-16T08:39:04.138Z,100.00
2023-02-16T08:41:35.556Z,100.00
2023-02-16T08:44:04.447Z,100.00
2023-02-16T08:46:35.827Z,100.00
2023-02-16T08:49:04.613Z,100.00
2023-02-16T08:51:36.566Z,100.00
2023-02-16T08:57:27.576Z,100.00
2023-02-16T09:00:09.600Z,100.00
2023-02-16T09:02:38.673Z,100.00
2023-02-16T09:05:07.325Z,100.00
2023-02-16T09:07:35.928Z,100.00
2023-02-16T09:10:04.863Z,100.00
2023-02-16T09:12:38.841Z,100.00
2023-02-16T09:15:07.288Z,100.00
2023-02-16T09:17:36.223Z,100.00
2023-02-16T09:20:08.083Z,100.00
2023-02-16T09:22:36.970Z,100.00
2023-02-16T09:25:07.323Z,100.00
2023-02-16T09:27:37.037Z,100.00
2023-02-16T09:30:05.917Z,100.00
2023-02-16T09:32:34.458Z,100.00
2023-02-16T09:35:02.644Z,100.00
2023-02-16T09:37:31.392Z,100.00
2023-02-16T09:39:59.492Z,100.00
2023-02-16T09:42:41.141Z,100.00
2023-02-16T09:45:16.380Z,100.00
2023-02-16T09:47:47.668Z,100.00
2023-02-16T09:50:27.727Z,100.00
2023-02-16T09:53:18.519Z,100.00
2023-02-16T09:55:54.431Z,100.00
2023-02-16T09:58:25.321Z,100.00
2023-02-16T10:00:59.693Z,100.00
2023-02-16T10:03:45.673Z,100.00
2023-02-16T10:06:35.505Z,100.00
2023-02-16T10:09:08.881Z,100.00
2023-02-16T10:11:46.873Z,100.00
2023-02-16T10:14:24.681Z,100.00
2023-02-16T10:17:02.707Z,100.00
2023-02-16T10:19:39.896Z,100.00
2023-02-16T10:22:17.303Z,100.00
2023-02-16T10:24:53.853Z,100.00
2023-02-16T10:27:23.210Z,100.00
2023-02-16T10:29:51.508Z,100.00
2023-02-16T10:32:30.614Z,100.00
2023-02-16T10:35:13.382Z,100.00
2023-02-16T10:37:53.048Z,100.00
2023-02-16T10:40:34.472Z,100.00
2023-02-16T10:43:12.901Z,100.00
2023-02-16T10:45:51.930Z,100.00
2023-02-16T10:48:24.480Z,100.00
2023-02-16T10:50:58.929Z,100.00
2023-02-16T10:53:37.848Z,100.00
2023-02-16T10:56:26.692Z,100.00
2023-02-16T10:58:55.209Z,100.00
2023-02-16T11:01:32.789Z,100.00
2023-02-16T11:04:05.256Z,100.00
2023-02-16T11:06:36.390Z,100.00
2023-02-16T11:09:06.903Z,100.00
2023-02-16T11:11:40.065Z,100.00
2023-02-16T11:14:10.208Z,100.00
2023-02-16T11:16:38.486Z,100.00
2023-02-16T11:19:10.467Z,100.00
2023-02-16T11:21:47.376Z,98.30
2023-02-16T11:24:26.438Z,95.63
2023-02-16T11:27:06.272Z,96.78
2023-02-16T11:29:35.171Z,100.00
2023-02-16T11:32:07.632Z,100.00
2023-02-16T11:34:42.689Z,97.85
2023-02-16T11:37:17.644Z,95.09
2023-02-16T11:39:52.802Z,93.76
2023-02-16T11:42:28.804Z,95.77
2023-02-16T11:44:58.981Z,97.59
2023-02-16T11:47:29.814Z,97.41
2023-02-16T11:50:29.157Z,99.39
2023-02-16T11:53:13.633Z,100.00
2023-02-16T11:55:44.326Z,100.00
2023-02-16T11:58:20.262Z,100.00
2023-02-16T12:01:01.932Z,100.00
2023-02-16T12:03:55.591Z,100.00
2023-02-16T12:06:40.238Z,100.00
2023-02-16T12:09:20.858Z,100.00
2023-02-16T12:12:01.030Z,100.00
2023-02-16T12:14:40.885Z,100.00
2023-02-16T12:17:23.183Z,100.00
2023-02-16T12:20:00.872Z,100.00
2023-02-16T12:22:40.883Z,100.00
2023-02-16T12:25:26.638Z,100.00
2023-02-16T12:28:01.912Z,100.00
2023-02-16T12:30:45.349Z,100.00
2023-02-16T12:33:27.172Z,100.00
2023-02-16T12:36:07.571Z,100.00
2023-02-16T12:38:49.843Z,100.00
2023-02-16T12:41:29.441Z,100.00
2023-02-16T12:44:02.198Z,100.00
2023-02-16T12:46:39.480Z,100.00
2023-02-16T12:49:16.584Z,100.00
2023-02-16T12:51:51.506Z,100.00
2023-02-16T12:54:25.953Z,100.00
2023-02-16T12:57:01.754Z,100.00
2023-02-16T12:59:40.264Z,100.00
2023-02-16T13:02:18.295Z,100.00
2023-02-16T13:04:51.938Z,99.80
2023-02-16T13:07:27.437Z,99.85
2023-02-16T13:10:03.594Z,100.00
2023-02-16T13:12:39.788Z,100.00
2023-02-16T13:15:14.725Z,100.00
2023-02-16T13:17:48.264Z,100.00
2023-02-16T13:20:19.114Z,100.00
2023-02-16T13:23:31.604Z,100.00
2023-02-16T13:26:18.395Z,100.00
2023-02-16T13:29:07.993Z,100.00
2023-02-16T13:31:53.134Z,100.00
2023-02-16T13:34:40.897Z,100.00
2023-02-16T13:37:25.717Z,100.00
2023-02-16T13:40:40.669Z,100.00
2023-02-16T13:43:26.667Z,100.00
2023-02-16T13:45:58.247Z,100.00
2023-02-16T13:48:32.024Z,100.00
2023-02-16T13:51:03.816Z,100.00
2023-02-16T13:53:37.733Z,100.00
2023-02-16T13:58:34.756Z,100.00
2023-02-16T14:01:37.742Z,100.00
2023-02-16T14:04:11.962Z,100.00
2023-02-16T14:06:42.761Z,100.00
2023-02-16T14:09:34.604Z,100.00
2023-02-16T14:12:16.639Z,100.00
2023-02-16T14:14:57.545Z,100.00
2023-02-16T14:17:30.201Z,100.00
2023-02-16T14:20:00.992Z,100.00
2023-02-16T14:22:47.863Z,100.00
2023-02-16T14:25:40.740Z,100.00
2023-02-16T14:28:47.952Z,100.00
2023-02-16T14:31:22.914Z,100.00
2023-02-16T14:34:03.172Z,100.00
2023-02-16T14:36:32.162Z,100.00
2023-02-16T14:39:02.165Z,100.00
2023-02-16T14:41:35.478Z,100.00
2023-02-16T14:44:35.252Z,100.00
2023-02-16T14:47:18.093Z,100.00
2023-02-16T14:50:18.367Z,100.00
2023-02-16T14:53:11.345Z,100.00
2023-02-16T14:56:13.804Z,100.00
2023-02-16T14:58:52.965Z,100.00
2023-02-16T15:01:29.248Z,100.00
2023-02-16T15:04:00.409Z,100.00
2023-02-16T15:06:37.546Z,100.00
2023-02-16T15:09:17.697Z,100.00
2023-02-16T15:12:24.880Z,100.00
2023-02-16T15:14:55.685Z,100.00
2023-02-16T15:17:31.286Z,100.00
2023-02-16T15:20:06.169Z,100.00
2023-02-16T15:22:38.915Z,100.00
2023-02-16T15:25:22.405Z,100.00
2023-02-16T15:27:59.349Z,100.00
2023-02-16T15:30:30.457Z,100.00
2023-02-16T15:33:02.458Z,100.00
2023-02-16T15:35:35.868Z,100.00
2023-02-16T15:38:09.187Z,100.00
2023-02-16T15:40:37.612Z,100.00
2023-02-16T15:43:20.500Z,100.00
2023-02-16T15:45:53.858Z,100.00
2023-02-16T15:48:25.896Z,100.00
2023-02-16T15:50:58.422Z,100.00
2023-02-16T15:53:36.182Z,100.00
2023-02-16T15:56:37.020Z,100.00
2023-02-16T15:59:18.106Z,100.00
2023-02-16T16:01:47.419Z,100.00
2023-02-16T16:04:21.817Z,100.00
2023-02-16T16:06:52.038Z,100.00
2023-02-16T16:09:25.685Z,100.00
2023-02-16T16:11:56.600Z,100.00
2023-02-16T16:14:26.500Z,100.00
2023-02-16T16:16:57.421Z,100.00
2023-02-16T16:19:33.803Z,100.00
2023-02-16T16:22:04.639Z,100.00
2023-02-16T16:24:38.186Z,100.00
2023-02-16T16:27:09.671Z,100.00
2023-02-16T16:29:41.482Z,100.00
2023-02-16T16:32:21.223Z,100.00
2023-02-16T16:34:52.663Z,100.00
2023-02-16T16:37:28.701Z,100.00
2023-02-16T16:40:04.891Z,100.00
2023-02-16T16:42:34.699Z,100.00
2023-02-16T16:45:07.596Z,100.00
2023-02-16T16:47:41.354Z,100.00
2023-02-16T16:50:33.590Z,100.00
2023-02-16T16:53:03.706Z,100.00
2023-02-16T16:55:34.824Z,100.00
2023-02-16T16:58:06.250Z,100.00
2023-02-16T17:00:39.870Z,100.00
2023-02-16T17:03:09.737Z,100.00
2023-02-16T17:05:40.168Z,100.00
2023-02-16T17:08:09.911Z,100.00
2023-02-16T17:10:41.302Z,100.00
2023-02-16T17:13:15.171Z,100.00
2023-02-16T17:15:48.736Z,100.00
2023-02-16T17:18:19.078Z,100.00
2023-02-16T17:20:48.545Z,100.00
2023-02-16T17:23:20.299Z,100.00
2023-02-16T17:25:49.005Z,100.00
2023-02-16T17:28:18.530Z,100.00
2023-02-16T17:30:46.708Z,100.00
2023-02-16T17:33:14.916Z,100.00
2023-02-16T17:35:44.685Z,100.00
2023-02-16T17:38:21.479Z,100.00
2023-02-16T17:40:50.512Z,100.00
2023-02-16T17:43:20.345Z,100.00
2023-02-16T17:45:49.816Z,100.00
2023-02-16T17:48:21.118Z,100.00
2023-02-16T17:50:51.388Z,100.00
2023-02-16T17:53:22.663Z,100.00
2023-02-16T17:55:53.360Z,100.00
2023-02-16T17:58:25.284Z,100.00
2023-02-16T18:00:56.160Z,100.00
2023-02-16T18:03:25.128Z,100.00
2023-02-16T18:05:53.854Z,100.00
2023-02-16T18:08:23.856Z,100.00
2023-02-16T18:11:01.875Z,100.00
2023-02-16T18:13:33.178Z,100.00
2023-02-16T18:16:03.807Z,100.00
2023-02-16T18:18:34.741Z,100.00
2023-02-16T18:21:03.458Z,100.00
2023-02-16T18:23:33.240Z,100.00
2023-02-16T18:26:01.585Z,100.00
2023-02-16T18:28:34.352Z,100.00
2023-02-16T18:31:06.748Z,100.00
2023-02-16T18:33:35.890Z,100.00
2023-02-16T18:36:05.485Z,100.00
2023-02-16T18:38:35.350Z,100.00
2023-02-16T18:41:03.510Z,100.00
2023-02-16T18:43:32.464Z,100.00
2023-02-16T18:46:00.529Z,100.00
2023-02-16T18:48:31.398Z,100.00
2023-02-16T18:50:59.763Z,100.00
2023-02-16T18:53:27.917Z,100.00
2023-02-16T18:59:28.734Z,100.00
2023-02-16T19:01:57.967Z,100.00
2023-02-16T19:04:27.273Z,100.00
2023-02-16T19:06:56.032Z,100.00
2023-02-16T19:09:24.545Z,100.00
2023-02-16T19:11:55.795Z,100.00
2023-02-16T19:14:23.984Z,100.00
2023-02-16T19:16:53.842Z,100.00
2023-02-16T19:19:24.412Z,100.00
2023-02-16T19:21:54.699Z,100.00
2023-02-16T19:24:22.734Z,100.00
2023-02-16T19:26:50.783Z,100.00
2023-02-16T19:29:21.887Z,100.00
2023-02-16T19:31:50.544Z,100.00
2023-02-16T19:34:22.568Z,100.00
2023-02-16T19:36:50.666Z,100.00
2023-02-16T19:39:20.050Z,100.00
2023-02-16T19:41:48.633Z,100.00
2023-02-16T19:44:18.765Z,100.00
2023-02-16T19:46:46.941Z,100.00
2023-02-16T19:49:17.609Z,100.00
2023-02-16T19:51:49.474Z,100.00
2023-02-16T19:54:18.611Z,100.00
2023-02-16T19:56:46.697Z,100.00
2023-02-16T19:59:17.364Z,100.00
2023-02-16T20:01:47.986Z,100.00
2023-02-16T20:04:16.492Z,100.00
2023-02-16T20:06:44.989Z,100.00
2023-02-16T20:09:17.781Z,100.00
2023-02-16T20:11:46.029Z,100.00
2023-02-16T20:14:14.510Z,100.00
2023-02-16T20:16:42.963Z,100.00
2023-02-16T20:19:14.308Z,100.00
2023-02-16T20:21:44.137Z,100.00
2023-02-16T20:24:14.773Z,100.00
2023-02-16T20:26:44.672Z,100.00
2023-02-16T20:29:16.864Z,100.00
2023-02-16T20:31:49.855Z,100.00
2023-02-16T20:34:20.573Z,100.00
2023-02-16T20:36:48.901Z,100.00
2023-02-16T20:39:20.710Z,100.00
2023-02-16T20:41:48.919Z,100.00
2023-02-16T20:44:17.802Z,100.00
2023-02-16T20:46:45.939Z,100.00
2023-02-16T20:49:16.523Z,100.00
2023-02-16T20:51:45.083Z,100.00
2023-02-16T20:54:15.952Z,100.00
2023-02-16T20:56:45.476Z,100.00
2023-02-16T20:59:14.192Z,100.00
2023-02-16T21:01:46.437Z,100.00
2023-02-16T21:04:16.574Z,100.00
2023-02-16T21:06:45.369Z,100.00
2023-02-16T21:09:16.501Z,100.00
2023-02-16T21:11:46.160Z,100.00
2023-02-16T21:14:14.772Z,100.00
2023-02-16T21:16:43.574Z,100.00
2023-02-16T21:19:22.505Z,100.00
2023-02-16T21:21:53.171Z,100.00
2023-02-16T21:24:26.399Z,100.00
2023-02-16T21:26:55.881Z,100.00
2023-02-16T21:29:24.309Z,100.00
2023-02-16T21:31:52.678Z,100.00
2023-02-16T21:34:21.412Z,100.00
2023-02-16T21:36:49.697Z,100.00
2023-02-16T21:39:18.140Z,100.00
2023-02-16T21:41:45.277Z,100.00
2023-02-16T21:44:16.943Z,100.00
2023-02-16T21:46:46.829Z,100.00
2023-02-16T21:49:17.757Z,100.00
2023-02-16T21:51:47.798Z,100.00
2023-02-16T21:54:39.797Z,100.00
2023-02-16T21:57:07.515Z,100.00
2023-02-16T21:59:37.952Z,100.00
2023-02-16T22:02:06.115Z,100.00
2023-02-16T22:04:34.421Z,100.00
2023-02-16T22:07:07.220Z,100.00
2023-02-16T22:09:35.726Z,100.00
2023-02-16T22:12:04.014Z,100.00
2023-02-16T22:14:35.303Z,100.00
2023-02-16T22:17:06.574Z,100.00
2023-02-16T22:19:35.391Z,100.00
2023-02-16T22:22:05.578Z,100.00
2023-02-16T22:24:33.993Z,100.00
2023-02-16T22:27:02.290Z,100.00
2023-02-16T22:29:31.163Z,100.00
2023-02-16T22:31:59.305Z,100.00
2023-02-16T22:34:28.861Z,100.00
2023-02-16T22:36:57.009Z,100.00
2023-02-16T22:39:25.223Z,100.00
2023-02-16T22:41:56.219Z,100.00
2023-02-16T22:44:24.731Z,100.00
2023-02-16T22:46:54.571Z,100.00
2023-02-16T22:49:22.811Z,100.00
2023-02-16T22:51:54.688Z,100.00
2023-02-16T22:54:23.268Z,100.00
2023-02-16T22:56:51.473Z,100.00
2023-02-16T22:59:19.729Z,100.00
2023-02-16T23:01:48.479Z,100.00
2023-02-16T23:04:22.467Z,100.00
2023-02-16T23:06:50.705Z,100.00
2023-02-16T23:09:22.164Z,100.00
2023-02-16T23:11:51.281Z,100.00
2023-02-16T23:14:20.806Z,100.00
2023-02-16T23:16:51.539Z,100.00
2023-02-16T23:19:23.181Z,100.00
2023-02-16T23:21:52.586Z,100.00
2023-02-16T23:24:23.769Z,100.00
2023-02-16T23:26:53.743Z,100.00
2023-02-16T23:29:22.492Z,100.00
2023-02-16T23:31:51.585Z,100.00
2023-02-16T23:34:20.310Z,100.00
2023-02-16T23:36:48.500Z,100.00
2023-02-16T23:39:19.220Z,100.00
2023-02-16T23:41:49.391Z,100.00
2023-02-16T23:44:17.430Z,100.00
2023-02-16T23:46:45.696Z,100.00
2023-02-16T23:49:13.815Z,100.00
2023-02-16T23:51:42.309Z,100.00
2023-02-16T23:54:11.471Z,100.00
2023-02-16T23:56:41.418Z,100.00
